sensor_id;sensor_type;location;lat;lon;timestamp;pressure;altitude;pressure_sealevel;temperature;humidity
68965;BME280;56017;48.680;8.998;2023-02-12T00:00:17;98600;;;6.1;83.5
68965;BME280;56017;48.680;8.998;2023-02-12T00:02:47;98590;;;6.2;84
68965;BME280;56017;48.680;8.998;2023-02-12T00:05:18;98590;;;6.3;84
68965;BME280;56017;48.680;8.998;2023-02-12T00:07:49;98590;;;6.3;83.5
68965;BME280;56017;48.680;8.998;2023-02-12T00:10:21;98590;;;6.3;83.5
68965;BME280;56017;48.680;8.998;2023-02-12T00:12:52;98600;;;6.4;84
68965;BME280;56017;48.680;8.998;2023-02-12T00:15:22;98600;;;6.6;83
68965;BME280;56017;48.680;8.998;2023-02-12T00:17:53;98590;;;6.5;83
68965;BME280;56017;48.680;8.998;2023-02-12T00:20:24;98600;;;6.6;83
68965;BME280;56017;48.680;8.998;2023-02-12T00:22:55;98600;;;6.6;82.5
68965;BME280;56017;48.680;8.998;2023-02-12T00:25:39;98600;;;6.7;82.5
68965;BME280;56017;48.680;8.998;2023-02-12T00:27:57;98590;;;6.6;82.5
68965;BME280;56017;48.680;8.998;2023-02-12T00:30:28;98600;;;6.5;83
68965;BME280;56017;48.680;8.998;2023-02-12T00:35:29;98600;;;6.4;82
68965;BME280;56017;48.680;8.998;2023-02-12T00:38:00;98600;;;6.3;82
68965;BME280;56017;48.680;8.998;2023-02-12T00:40:31;98610;;;6.2;82.5
68965;BME280;56017;48.680;8.998;2023-02-12T00:43:02;98610;;;6.1;83
68965;BME280;56017;48.680;8.998;2023-02-12T00:45:33;98610;;;6.2;83
68965;BME280;56017;48.680;8.998;2023-02-12T00:50:35;98610;;;6.3;82
68965;BME280;56017;48.680;8.998;2023-02-12T00:55:37;98610;;;6.4;82
68965;BME280;56017;48.680;8.998;2023-02-12T00:58:08;98620;;;6.4;82
68965;BME280;56017;48.680;8.998;2023-02-12T01:00:40;98620;;;6.4;82
68965;BME280;56017;48.680;8.998;2023-02-12T01:05:41;98620;;;6.4;83
68965;BME280;56017;48.680;8.998;2023-02-12T01:08:13;98620;;;6.5;82.5
68965;BME280;56017;48.680;8.998;2023-02-12T01:13:20;98620;;;6.5;83
68965;BME280;56017;48.680;8.998;2023-02-12T01:15:45;98620;;;6.6;82
68965;BME280;56017;48.680;8.998;2023-02-12T01:18:22;98620;;;6.5;82
68965;BME280;56017;48.680;8.998;2023-02-12T01:20:47;98610;;;6.4;82.5
68965;BME280;56017;48.680;8.998;2023-02-12T01:23:24;98610;;;6.4;83.5
68965;BME280;56017;48.680;8.998;2023-02-12T01:25:49;98620;;;6.5;83
68965;BME280;56017;48.680;8.998;2023-02-12T01:28:26;98620;;;6.4;82.5
68965;BME280;56017;48.680;8.998;2023-02-12T01:30:51;98620;;;6.2;83
68965;BME280;56017;48.680;8.998;2023-02-12T01:33:28;98620;;;6.2;83.5
68965;BME280;56017;48.680;8.998;2023-02-12T01:35:53;98610;;;6.3;82.5
68965;BME280;56017;48.680;8.998;2023-02-12T01:38:30;98610;;;6.2;82.5
68965;BME280;56017;48.680;8.998;2023-02-12T01:41:11;98610;;;6;83
68965;BME280;56017;48.680;8.998;2023-02-12T01:43:33;98610;;;5.9;83.5
68965;BME280;56017;48.680;8.998;2023-02-12T01:46:03;98620;;;5.9;83.5
68965;BME280;56017;48.680;8.998;2023-02-12T01:48:36;98620;;;5.9;84
68965;BME280;56017;48.680;8.998;2023-02-12T01:50:59;98610;;;6;83.5
68965;BME280;56017;48.680;8.998;2023-02-12T01:53:39;98620;;;6.1;82.5
68965;BME280;56017;48.680;8.998;2023-02-12T01:56:01;98610;;;6.1;83
68965;BME280;56017;48.680;8.998;2023-02-12T01:58:40;98610;;;6;83.5
68965;BME280;56017;48.680;8.998;2023-02-12T02:01:03;98620;;;6;83.5
68965;BME280;56017;48.680;8.998;2023-02-12T02:06:21;98610;;;6;83.5
68965;BME280;56017;48.680;8.998;2023-02-12T02:11:07;98610;;;5.9;83
68965;BME280;56017;48.680;8.998;2023-02-12T02:13:44;98610;;;5.8;83
68965;BME280;56017;48.680;8.998;2023-02-12T02:16:11;98610;;;5.8;83.5
68965;BME280;56017;48.680;8.998;2023-02-12T02:19:02;98610;;;5.9;83.5
68965;BME280;56017;48.680;8.998;2023-02-12T02:21:17;98610;;;5.9;83.5
68965;BME280;56017;48.680;8.998;2023-02-12T02:23:51;98610;;;5.9;83.5
68965;BME280;56017;48.680;8.998;2023-02-12T02:26:21;98600;;;5.9;83.5
68965;BME280;56017;48.680;8.998;2023-02-12T02:28:54;98600;;;5.9;83.5
68965;BME280;56017;48.680;8.998;2023-02-12T02:31:24;98590;;;5.9;83
68965;BME280;56017;48.680;8.998;2023-02-12T02:33:53;98590;;;5.8;83
68965;BME280;56017;48.680;8.998;2023-02-12T02:36:22;98590;;;5.8;83.5
68965;BME280;56017;48.680;8.998;2023-02-12T02:39:13;98590;;;5.8;83.5
68965;BME280;56017;48.680;8.998;2023-02-12T02:41:19;98590;;;5.8;83.5
68965;BME280;56017;48.680;8.998;2023-02-12T02:43:56;98590;;;5.7;83
68965;BME280;56017;48.680;8.998;2023-02-12T02:46:25;98590;;;5.6;83.5
68965;BME280;56017;48.680;8.998;2023-02-12T02:48:59;98590;;;5.6;83.5
68965;BME280;56017;48.680;8.998;2023-02-12T02:51:25;98590;;;5.6;83.5
68965;BME280;56017;48.680;8.998;2023-02-12T02:54:16;98590;;;5.6;84
68965;BME280;56017;48.680;8.998;2023-02-12T02:56:24;98590;;;5.7;84
68965;BME280;56017;48.680;8.998;2023-02-12T02:59:04;98580;;;5.8;83.5
68965;BME280;56017;48.680;8.998;2023-02-12T03:01:28;98580;;;5.8;83.5
68965;BME280;56017;48.680;8.998;2023-02-12T03:06:31;98570;;;5.9;83
68965;BME280;56017;48.680;8.998;2023-02-12T03:09:10;98580;;;5.9;83
68965;BME280;56017;48.680;8.998;2023-02-12T03:11:31;98580;;;5.8;83.5
68965;BME280;56017;48.680;8.998;2023-02-12T03:14:25;98580;;;5.9;83
68965;BME280;56017;48.680;8.998;2023-02-12T03:16:34;98580;;;6.1;82.5
68965;BME280;56017;48.680;8.998;2023-02-12T03:19:11;98580;;;6.1;82
68965;BME280;56017;48.680;8.998;2023-02-12T03:21:43;98580;;;6;82.5
68965;BME280;56017;48.680;8.998;2023-02-12T03:24:14;98590;;;6;83
68965;BME280;56017;48.680;8.998;2023-02-12T03:26:39;98580;;;6.1;83
68965;BME280;56017;48.680;8.998;2023-02-12T03:29:13;98580;;;6.1;82
68965;BME280;56017;48.680;8.998;2023-02-12T03:31:49;98590;;;6;82.5
68965;BME280;56017;48.680;8.998;2023-02-12T03:34:17;98590;;;5.8;83
68965;BME280;56017;48.680;8.998;2023-02-12T03:36:43;98590;;;5.7;83
68965;BME280;56017;48.680;8.998;2023-02-12T03:41:44;98600;;;5.6;84
68965;BME280;56017;48.680;8.998;2023-02-12T03:44:20;98600;;;5.7;84
68965;BME280;56017;48.680;8.998;2023-02-12T03:47:09;98600;;;5.8;83.5
68965;BME280;56017;48.680;8.998;2023-02-12T03:49:24;98590;;;6;82.5
68965;BME280;56017;48.680;8.998;2023-02-12T03:51:46;98590;;;6;82.5
68965;BME280;56017;48.680;8.998;2023-02-12T03:54:23;98590;;;5.9;83
68965;BME280;56017;48.680;8.998;2023-02-12T03:56:52;98590;;;5.9;83
68965;BME280;56017;48.680;8.998;2023-02-12T03:59:25;98600;;;5.7;83
68965;BME280;56017;48.680;8.998;2023-02-12T04:02:04;98600;;;5.6;83.5
68965;BME280;56017;48.680;8.998;2023-02-12T04:04:27;98600;;;5.8;83.5
68965;BME280;56017;48.680;8.998;2023-02-12T04:06:52;98600;;;5.9;82.5
68965;BME280;56017;48.680;8.998;2023-02-12T04:09:29;98600;;;6;82.5
68965;BME280;56017;48.680;8.998;2023-02-12T04:11:58;98600;;;6;82.5
68965;BME280;56017;48.680;8.998;2023-02-12T04:14:35;98600;;;5.9;83
68965;BME280;56017;48.680;8.998;2023-02-12T04:16:59;98600;;;5.9;83.5
68965;BME280;56017;48.680;8.998;2023-02-12T04:20:40;98600;;;5.9;83.5
68965;BME280;56017;48.680;8.998;2023-02-12T04:22:04;98600;;;5.9;83
68965;BME280;56017;48.680;8.998;2023-02-12T04:24:43;98600;;;5.8;83
68965;BME280;56017;48.680;8.998;2023-02-12T04:27:02;98610;;;5.7;83
68965;BME280;56017;48.680;8.998;2023-02-12T04:29:41;98610;;;5.6;83.5
68965;BME280;56017;48.680;8.998;2023-02-12T04:32:17;98610;;;5.6;84
68965;BME280;56017;48.680;8.998;2023-02-12T04:34:49;98610;;;5.8;83.5
68965;BME280;56017;48.680;8.998;2023-02-12T04:37:06;98620;;;5.9;83
68965;BME280;56017;48.680;8.998;2023-02-12T04:39:41;98620;;;5.9;83
68965;BME280;56017;48.680;8.998;2023-02-12T04:42:12;98620;;;5.8;83
68965;BME280;56017;48.680;8.998;2023-02-12T04:44:43;98620;;;5.7;83.5
68965;BME280;56017;48.680;8.998;2023-02-12T04:47:09;98620;;;5.7;83.5
68965;BME280;56017;48.680;8.998;2023-02-12T04:49:45;98620;;;5.8;83.5
68965;BME280;56017;48.680;8.998;2023-02-12T04:52:09;98620;;;5.9;83
68965;BME280;56017;48.680;8.998;2023-02-12T04:54:47;98620;;;5.8;83
68965;BME280;56017;48.680;8.998;2023-02-12T04:57:18;98620;;;5.6;83.5
68965;BME280;56017;48.680;8.998;2023-02-12T04:59:49;98620;;;5.5;83.5
68965;BME280;56017;48.680;8.998;2023-02-12T05:02:13;98620;;;5.5;84
68965;BME280;56017;48.680;8.998;2023-02-12T05:04:51;98630;;;5.5;84
68965;BME280;56017;48.680;8.998;2023-02-12T05:07:15;98620;;;5.5;84.5
68965;BME280;56017;48.680;8.998;2023-02-12T05:09:53;98620;;;5.6;84.5
68965;BME280;56017;48.680;8.998;2023-02-12T05:12:17;98620;;;5.9;83.5
68965;BME280;56017;48.680;8.998;2023-02-12T05:14:55;98620;;;6;83
68965;BME280;56017;48.680;8.998;2023-02-12T05:17:21;98620;;;6.1;82.5
68965;BME280;56017;48.680;8.998;2023-02-12T05:22:22;98620;;;6;83
68965;BME280;56017;48.680;8.998;2023-02-12T05:24:58;98610;;;6;83
68965;BME280;56017;48.680;8.998;2023-02-12T05:27:23;98610;;;5.9;83
68965;BME280;56017;48.680;8.998;2023-02-12T05:30:00;98620;;;5.8;82.5
68965;BME280;56017;48.680;8.998;2023-02-12T05:32:25;98620;;;5.7;83.5
68965;BME280;56017;48.680;8.998;2023-02-12T05:35:03;98620;;;5.7;83.5
68965;BME280;56017;48.680;8.998;2023-02-12T05:37:27;98620;;;5.7;83
68965;BME280;56017;48.680;8.998;2023-02-12T05:40:04;98620;;;5.6;83.5
68965;BME280;56017;48.680;8.998;2023-02-12T05:42:29;98630;;;5.8;83
68965;BME280;56017;48.680;8.998;2023-02-12T05:47:30;98620;;;5.8;83.5
68965;BME280;56017;48.680;8.998;2023-02-12T05:52:32;98620;;;5.5;83
68965;BME280;56017;48.680;8.998;2023-02-12T05:57:41;98620;;;5.6;83.5
68965;BME280;56017;48.680;8.998;2023-02-12T06:02:37;98620;;;5.4;83
68965;BME280;56017;48.680;8.998;2023-02-12T06:05:14;98620;;;5.3;83.5
68965;BME280;56017;48.680;8.998;2023-02-12T06:07:38;98620;;;5.3;84
68965;BME280;56017;48.680;8.998;2023-02-12T06:10:16;98620;;;5.3;84
68965;BME280;56017;48.680;8.998;2023-02-12T06:12:40;98620;;;5.5;84
68965;BME280;56017;48.680;8.998;2023-02-12T06:15:17;98620;;;5.7;83
68965;BME280;56017;48.680;8.998;2023-02-12T06:17:49;98620;;;5.8;82.5
68965;BME280;56017;48.680;8.998;2023-02-12T06:20:20;98620;;;5.8;82.5
68965;BME280;56017;48.680;8.998;2023-02-12T06:22:44;98620;;;5.7;83
68965;BME280;56017;48.680;8.998;2023-02-12T06:27:47;98620;;;5.5;83
68965;BME280;56017;48.680;8.998;2023-02-12T06:30:23;98620;;;5.3;83
68965;BME280;56017;48.680;8.998;2023-02-12T06:32:48;98620;;;5.2;83.5
68965;BME280;56017;48.680;8.998;2023-02-12T06:35:19;98620;;;5.2;83
68965;BME280;56017;48.680;8.998;2023-02-12T06:37:50;98630;;;5.1;83.5
68965;BME280;56017;48.680;8.998;2023-02-12T06:40:28;98630;;;5.1;83.5
68965;BME280;56017;48.680;8.998;2023-02-12T06:42:52;98630;;;5.2;82.5
68965;BME280;56017;48.680;8.998;2023-02-12T06:45:29;98640;;;5.2;82.5
68965;BME280;56017;48.680;8.998;2023-02-12T06:47:54;98640;;;5.2;82.5
68965;BME280;56017;48.680;8.998;2023-02-12T06:50:31;98640;;;5.1;83
68965;BME280;56017;48.680;8.998;2023-02-12T06:52:57;98640;;;5.1;83
68965;BME280;56017;48.680;8.998;2023-02-12T06:55:33;98640;;;4.9;83
68965;BME280;56017;48.680;8.998;2023-02-12T06:57:58;98640;;;4.9;83.5
68965;BME280;56017;48.680;8.998;2023-02-12T07:00:35;98640;;;4.8;83.5
68965;BME280;56017;48.680;8.998;2023-02-12T07:02:59;98640;;;4.8;84
68965;BME280;56017;48.680;8.998;2023-02-12T07:05:38;98650;;;4.7;84
68965;BME280;56017;48.680;8.998;2023-02-12T07:08:01;98650;;;4.7;83.5
68965;BME280;56017;48.680;8.998;2023-02-12T07:10:39;98650;;;4.7;83.5
68965;BME280;56017;48.680;8.998;2023-02-12T07:13:04;98650;;;4.6;83.5
68965;BME280;56017;48.680;8.998;2023-02-12T07:15:41;98650;;;4.6;84
68965;BME280;56017;48.680;8.998;2023-02-12T07:18:05;98660;;;4.8;84
68965;BME280;56017;48.680;8.998;2023-02-12T07:20:43;98650;;;5.1;83.5
68965;BME280;56017;48.680;8.998;2023-02-12T07:23:10;98650;;;5.3;83
68965;BME280;56017;48.680;8.998;2023-02-12T07:25:53;98650;;;5.3;83
68965;BME280;56017;48.680;8.998;2023-02-12T07:28:09;98650;;;5.4;83
68965;BME280;56017;48.680;8.998;2023-02-12T07:30:47;98650;;;5.4;83
68965;BME280;56017;48.680;8.998;2023-02-12T07:33:11;98660;;;5.3;83
68965;BME280;56017;48.680;8.998;2023-02-12T07:35:49;98660;;;5.3;83.5
68965;BME280;56017;48.680;8.998;2023-02-12T07:38:13;98660;;;5.3;83
68965;BME280;56017;48.680;8.998;2023-02-12T07:40:51;98660;;;5.4;83.5
68965;BME280;56017;48.680;8.998;2023-02-12T07:45:53;98660;;;5.5;83.5
68965;BME280;56017;48.680;8.998;2023-02-12T07:48:17;98660;;;5.6;83.5
68965;BME280;56017;48.680;8.998;2023-02-12T07:50:55;98660;;;5.7;83.5
68965;BME280;56017;48.680;8.998;2023-02-12T07:53:19;98660;;;5.8;83.5
68965;BME280;56017;48.680;8.998;2023-02-12T07:56:29;98660;;;6;83.5
68965;BME280;56017;48.680;8.998;2023-02-12T07:58:21;98660;;;6.3;82.5
68965;BME280;56017;48.680;8.998;2023-02-12T08:00:59;98650;;;6.4;82.5
68965;BME280;56017;48.680;8.998;2023-02-12T08:03:23;98650;;;6.5;83
68965;BME280;56017;48.680;8.998;2023-02-12T08:11:04;98650;;;6.7;82
68965;BME280;56017;48.680;8.998;2023-02-12T08:13:27;98650;;;6.8;82.5
68965;BME280;56017;48.680;8.998;2023-02-12T08:16:08;98640;;;6.9;82.5
68965;BME280;56017;48.680;8.998;2023-02-12T08:18:30;98640;;;6.8;83.5
68965;BME280;56017;48.680;8.998;2023-02-12T08:23:31;98640;;;7.2;83
68965;BME280;56017;48.680;8.998;2023-02-12T08:26:10;98640;;;7.3;83.5
68965;BME280;56017;48.680;8.998;2023-02-12T08:28:33;98640;;;7.3;83.5
68965;BME280;56017;48.680;8.998;2023-02-12T08:31:18;98640;;;7.4;83.5
68965;BME280;56017;48.680;8.998;2023-02-12T08:33:43;98640;;;7.4;83.5
68965;BME280;56017;48.680;8.998;2023-02-12T08:36:13;98640;;;7.4;83.5
68965;BME280;56017;48.680;8.998;2023-02-12T08:38:44;98630;;;7.5;84
68965;BME280;56017;48.680;8.998;2023-02-12T08:41:16;98630;;;7.7;83.5
68965;BME280;56017;48.680;8.998;2023-02-12T08:43:39;98640;;;7.7;83.5
68965;BME280;56017;48.680;8.998;2023-02-12T08:46:18;98640;;;7.7;84
68965;BME280;56017;48.680;8.998;2023-02-12T08:48:41;98640;;;7.9;83.5
68965;BME280;56017;48.680;8.998;2023-02-12T08:51:20;98640;;;8;83.5
68965;BME280;56017;48.680;8.998;2023-02-12T08:53:46;98640;;;8.2;83.5
68965;BME280;56017;48.680;8.998;2023-02-12T08:56:21;98640;;;8.4;83
68965;BME280;56017;48.680;8.998;2023-02-12T08:58:51;98640;;;8.4;83
68965;BME280;56017;48.680;8.998;2023-02-12T09:03:47;98640;;;8.6;83
68965;BME280;56017;48.680;8.998;2023-02-12T09:06:25;98650;;;8.5;83
68965;BME280;56017;48.680;8.998;2023-02-12T09:08:55;98650;;;8.4;83.5
68965;BME280;56017;48.680;8.998;2023-02-12T09:11:27;98640;;;8.3;83.5
68965;BME280;56017;48.680;8.998;2023-02-12T09:13:51;98640;;;8.2;83.5
68965;BME280;56017;48.680;8.998;2023-02-12T09:16:22;98640;;;8.2;84
68965;BME280;56017;48.680;8.998;2023-02-12T09:18:52;98650;;;8.2;84
68965;BME280;56017;48.680;8.998;2023-02-12T09:23:55;98650;;;8.4;84.5
68965;BME280;56017;48.680;8.998;2023-02-12T09:26:32;98650;;;8.5;84
68965;BME280;56017;48.680;8.998;2023-02-12T09:28:57;98650;;;8.5;84
68965;BME280;56017;48.680;8.998;2023-02-12T09:31:34;98650;;;8.5;84.5
68965;BME280;56017;48.680;8.998;2023-02-12T09:34:05;98650;;;8.6;84.5
68965;BME280;56017;48.680;8.998;2023-02-12T09:36:36;98660;;;8.8;84
68965;BME280;56017;48.680;8.998;2023-02-12T09:39:02;98650;;;8.8;84.5
68965;BME280;56017;48.680;8.998;2023-02-12T09:41:43;98660;;;9;84.5
68965;BME280;56017;48.680;8.998;2023-02-12T09:45:08;98660;;;9.1;84.5
68965;BME280;56017;48.680;8.998;2023-02-12T09:46:49;98650;;;9.2;84
68965;BME280;56017;48.680;8.998;2023-02-12T09:49:08;98650;;;9.2;84
68965;BME280;56017;48.680;8.998;2023-02-12T09:54:11;98660;;;9.3;84
68965;BME280;56017;48.680;8.998;2023-02-12T09:56:37;98650;;;9.3;84
68965;BME280;56017;48.680;8.998;2023-02-12T09:59:10;98650;;;9.3;84
68965;BME280;56017;48.680;8.998;2023-02-12T10:01:39;98660;;;9.3;84.5
68965;BME280;56017;48.680;8.998;2023-02-12T10:04:10;98650;;;9.3;84
68965;BME280;56017;48.680;8.998;2023-02-12T10:06:44;98660;;;9.4;84
68965;BME280;56017;48.680;8.998;2023-02-12T10:09:20;98650;;;9.6;84
68965;BME280;56017;48.680;8.998;2023-02-12T10:11:48;98660;;;9.5;84
68965;BME280;56017;48.680;8.998;2023-02-12T10:17:51;98660;;;9.7;84
68965;BME280;56017;48.680;8.998;2023-02-12T10:22:28;98650;;;9.9;84
68965;BME280;56017;48.680;8.998;2023-02-12T10:24:23;98650;;;10;83
68965;BME280;56017;48.680;8.998;2023-02-12T10:26:57;98650;;;9.8;84
68965;BME280;56017;48.680;8.998;2023-02-12T10:29:21;98650;;;9.8;84
68965;BME280;56017;48.680;8.998;2023-02-12T10:31:59;98650;;;9.9;84.5
68965;BME280;56017;48.680;8.998;2023-02-12T10:34:23;98650;;;10;84
68965;BME280;56017;48.680;8.998;2023-02-12T10:37:04;98650;;;9.9;84
68965;BME280;56017;48.680;8.998;2023-02-12T10:39:27;98650;;;9.8;84
68965;BME280;56017;48.680;8.998;2023-02-12T10:42:03;98640;;;9.9;84.5
68965;BME280;56017;48.680;8.998;2023-02-12T10:44:26;98640;;;9.9;84.5
68965;BME280;56017;48.680;8.998;2023-02-12T10:47:03;98640;;;10;85
68965;BME280;56017;48.680;8.998;2023-02-12T10:49:29;98640;;;10.1;84
68965;BME280;56017;48.680;8.998;2023-02-12T10:52:23;98640;;;10;83.5
68965;BME280;56017;48.680;8.998;2023-02-12T10:54:38;98630;;;9.9;84
68965;BME280;56017;48.680;8.998;2023-02-12T10:57:09;98630;;;9.9;84.5
68965;BME280;56017;48.680;8.998;2023-02-12T10:59:32;98630;;;10;84.5
68965;BME280;56017;48.680;8.998;2023-02-12T11:02:17;98630;;;10.3;85
68965;BME280;56017;48.680;8.998;2023-02-12T11:04:34;98620;;;10.4;84.5
68965;BME280;56017;48.680;8.998;2023-02-12T11:07:11;98620;;;10.7;85
68965;BME280;56017;48.680;8.998;2023-02-12T11:09:37;98620;;;10.9;84
68965;BME280;56017;48.680;8.998;2023-02-12T11:12:14;98620;;;10.9;84
68965;BME280;56017;48.680;8.998;2023-02-12T11:14:48;98620;;;10.9;84
68965;BME280;56017;48.680;8.998;2023-02-12T11:17:19;98620;;;10.9;84.5
68965;BME280;56017;48.680;8.998;2023-02-12T11:19:39;98620;;;10.8;84
68965;BME280;56017;48.680;8.998;2023-02-12T11:22:17;98620;;;10.9;84.5
68965;BME280;56017;48.680;8.998;2023-02-12T11:24:48;98610;;;11;84.5
68965;BME280;56017;48.680;8.998;2023-02-12T11:27:22;98610;;;11.1;84
68965;BME280;56017;48.680;8.998;2023-02-12T11:29:43;98610;;;11.1;83.5
68965;BME280;56017;48.680;8.998;2023-02-12T11:35:02;98620;;;10.9;84
68965;BME280;56017;48.680;8.998;2023-02-12T11:37:23;98610;;;11;83.5
68965;BME280;56017;48.680;8.998;2023-02-12T11:39:47;98600;;;10.9;83.5
68965;BME280;56017;48.680;8.998;2023-02-12T11:44:57;98610;;;10.7;84.5
68965;BME280;56017;48.680;8.998;2023-02-12T11:50:24;98600;;;10.8;84.5
68965;BME280;56017;48.680;8.998;2023-02-12T11:54:55;98610;;;10.8;84
68965;BME280;56017;48.680;8.998;2023-02-12T11:57:47;98610;;;10.8;83.5
68965;BME280;56017;48.680;8.998;2023-02-12T11:59:55;98610;;;10.8;84
68965;BME280;56017;48.680;8.998;2023-02-12T12:02:33;98610;;;10.7;84.5
68965;BME280;56017;48.680;8.998;2023-02-12T12:05:00;98610;;;10.6;84
68965;BME280;56017;48.680;8.998;2023-02-12T12:07:35;98610;;;10.6;84.5
68965;BME280;56017;48.680;8.998;2023-02-12T12:10:11;98610;;;10.6;84.5
68965;BME280;56017;48.680;8.998;2023-02-12T12:12:39;98600;;;10.6;84.5
68965;BME280;56017;48.680;8.998;2023-02-12T12:15:03;98600;;;10.7;84.5
68965;BME280;56017;48.680;8.998;2023-02-12T12:20:18;98600;;;10.7;84.5
68965;BME280;56017;48.680;8.998;2023-02-12T12:23:14;98590;;;10.8;85
68965;BME280;56017;48.680;8.998;2023-02-12T12:25:09;98590;;;10.9;85
68965;BME280;56017;48.680;8.998;2023-02-12T12:27:47;98590;;;10.9;84
68965;BME280;56017;48.680;8.998;2023-02-12T12:30:10;98590;;;10.8;84.5
68965;BME280;56017;48.680;8.998;2023-02-12T12:35:10;98580;;;11;85
68965;BME280;56017;48.680;8.998;2023-02-12T12:37:51;98590;;;11.3;84.5
68965;BME280;56017;48.680;8.998;2023-02-12T12:40:15;98580;;;11.2;84.5
68965;BME280;56017;48.680;8.998;2023-02-12T12:43:55;98580;;;11.2;84
68965;BME280;56017;48.680;8.998;2023-02-12T12:45:49;98580;;;11.2;84
68965;BME280;56017;48.680;8.998;2023-02-12T12:47:57;98580;;;11.3;84
68965;BME280;56017;48.680;8.998;2023-02-12T12:50:34;98570;;;11.1;84
68965;BME280;56017;48.680;8.998;2023-02-12T12:55:20;98560;;;11.1;84.5
68965;BME280;56017;48.680;8.998;2023-02-12T12:57:58;98560;;;11.2;85
68965;BME280;56017;48.680;8.998;2023-02-12T13:00:24;98560;;;11.3;84.5
68965;BME280;56017;48.680;8.998;2023-02-12T13:03:00;98550;;;11.5;84.5
68965;BME280;56017;48.680;8.998;2023-02-12T13:05:23;98560;;;11.8;84.5
68965;BME280;56017;48.680;8.998;2023-02-12T13:08:02;98560;;;11.9;84
68965;BME280;56017;48.680;8.998;2023-02-12T13:10:30;98550;;;12;83.5
68965;BME280;56017;48.680;8.998;2023-02-12T13:15:42;98550;;;11.7;84
68965;BME280;56017;48.680;8.998;2023-02-12T13:18:12;98560;;;11.6;84
68965;BME280;56017;48.680;8.998;2023-02-12T13:20:37;98550;;;11.6;84
68965;BME280;56017;48.680;8.998;2023-02-12T13:25:32;98550;;;11.6;84
68965;BME280;56017;48.680;8.998;2023-02-12T13:28:08;98540;;;11.8;84
68965;BME280;56017;48.680;8.998;2023-02-12T13:30:47;98540;;;12.1;84.5
68965;BME280;56017;48.680;8.998;2023-02-12T13:33:10;98530;;;12.6;83.5
68965;BME280;56017;48.680;8.998;2023-02-12T13:35:33;98540;;;12.6;83.5
68965;BME280;56017;48.680;8.998;2023-02-12T13:38:14;98540;;;12.6;83
68965;BME280;56017;48.680;8.998;2023-02-12T13:40:34;98540;;;12.4;83.5
68965;BME280;56017;48.680;8.998;2023-02-12T13:45:42;98530;;;12;82.5
68965;BME280;56017;48.680;8.998;2023-02-12T13:48:23;98540;;;11.8;83.5
68965;BME280;56017;48.680;8.998;2023-02-12T13:50:47;98540;;;11.9;84
68965;BME280;56017;48.680;8.998;2023-02-12T13:53:34;98530;;;12;84
68965;BME280;56017;48.680;8.998;2023-02-12T13:58:44;98520;;;17.3;78
68965;BME280;56017;48.680;8.998;2023-02-12T14:00:55;98510;;;19.7;73.5
68965;BME280;56017;48.680;8.998;2023-02-12T14:05:44;98500;;;21.4;71
68965;BME280;56017;48.680;8.998;2023-02-12T14:08:27;98500;;;22.1;70
68965;BME280;56017;48.680;8.998;2023-02-12T14:10:46;98500;;;22.3;69.5
68965;BME280;56017;48.680;8.998;2023-02-12T14:13:24;98500;;;21.6;70
68965;BME280;56017;48.680;8.998;2023-02-12T14:15:55;98500;;;22;68.5
68965;BME280;56017;48.680;8.998;2023-02-12T14:18:28;98490;;;22.4;64
68965;BME280;56017;48.680;8.998;2023-02-12T14:21:53;98490;;;22.1;63
68965;BME280;56017;48.680;8.998;2023-02-12T14:23:28;98480;;;21.2;64
68965;BME280;56017;48.680;8.998;2023-02-12T14:26:08;98480;;;21.3;64
68965;BME280;56017;48.680;8.998;2023-02-12T14:28:31;98480;;;21.2;65
68965;BME280;56017;48.680;8.998;2023-02-12T14:31:29;98470;;;21.2;66
68965;BME280;56017;48.680;8.998;2023-02-12T14:33:25;98470;;;21.6;63.5
68965;BME280;56017;48.680;8.998;2023-02-12T14:41:36;98460;;;18.6;67.5
68965;BME280;56017;48.680;8.998;2023-02-12T14:43:36;98470;;;17.1;68.5
68965;BME280;56017;48.680;8.998;2023-02-12T14:47:48;98470;;;15.9;71.5
68965;BME280;56017;48.680;8.998;2023-02-12T14:48:49;98470;;;14.9;73.5
68965;BME280;56017;48.680;8.998;2023-02-12T14:51:01;98470;;;14.3;75
68965;BME280;56017;48.680;8.998;2023-02-12T14:53:39;98470;;;14;75.5
68965;BME280;56017;48.680;8.998;2023-02-12T14:56:03;98470;;;13.7;75.5
68965;BME280;56017;48.680;8.998;2023-02-12T14:58:41;98480;;;13.7;76.5
68965;BME280;56017;48.680;8.998;2023-02-12T15:01:05;98480;;;14.1;76
68965;BME280;56017;48.680;8.998;2023-02-12T15:03:46;98480;;;14.6;76
68965;BME280;56017;48.680;8.998;2023-02-12T15:06:10;98480;;;14.9;76.5
68965;BME280;56017;48.680;8.998;2023-02-12T15:08:48;98480;;;14.6;76
68965;BME280;56017;48.680;8.998;2023-02-12T15:11:19;98480;;;14;76.5
68965;BME280;56017;48.680;8.998;2023-02-12T15:13:51;98480;;;13.6;77.5
68965;BME280;56017;48.680;8.998;2023-02-12T15:16:21;98480;;;13.4;77.5
68965;BME280;56017;48.680;8.998;2023-02-12T15:18:51;98480;;;13.6;78
68965;BME280;56017;48.680;8.998;2023-02-12T15:21:22;98480;;;14.1;77.5
68965;BME280;56017;48.680;8.998;2023-02-12T15:24:23;98480;;;13.9;77.5
68965;BME280;56017;48.680;8.998;2023-02-12T15:26:17;98480;;;12.9;79
68965;BME280;56017;48.680;8.998;2023-02-12T15:28:53;98470;;;12.8;79.5
68965;BME280;56017;48.680;8.998;2023-02-12T15:31:19;98470;;;13.8;78
68965;BME280;56017;48.680;8.998;2023-02-12T15:33:56;98470;;;14.3;77.5
68965;BME280;56017;48.680;8.998;2023-02-12T15:36:20;98470;;;14.7;77.5
68965;BME280;56017;48.680;8.998;2023-02-12T15:38:58;98460;;;15.5;77
68965;BME280;56017;48.680;8.998;2023-02-12T15:41:22;98460;;;16.8;75.5
68965;BME280;56017;48.680;8.998;2023-02-12T15:43:59;98460;;;18;73.5
68965;BME280;56017;48.680;8.998;2023-02-12T15:46:24;98460;;;18.5;72
68965;BME280;56017;48.680;8.998;2023-02-12T15:51:27;98450;;;19;71.5
68965;BME280;56017;48.680;8.998;2023-02-12T15:54:03;98460;;;18.8;68.5
68965;BME280;56017;48.680;8.998;2023-02-12T15:56:28;98460;;;17.3;68
68965;BME280;56017;48.680;8.998;2023-02-12T16:01:30;98470;;;14.3;71
68965;BME280;56017;48.680;8.998;2023-02-12T16:04:07;98470;;;12.5;74
68965;BME280;56017;48.680;8.998;2023-02-12T16:06:32;98470;;;11.5;75.5
68965;BME280;56017;48.680;8.998;2023-02-12T16:09:17;98470;;;11;75
68965;BME280;56017;48.680;8.998;2023-02-12T16:11:41;98470;;;10.5;76
68965;BME280;56017;48.680;8.998;2023-02-12T16:14:19;98470;;;10.1;76
68965;BME280;56017;48.680;8.998;2023-02-12T16:16:39;98470;;;9.8;76.5
68965;BME280;56017;48.680;8.998;2023-02-12T16:19:16;98480;;;9.6;77.5